sensor_id;sensor_type;location;lat;lon;timestamp;P1;durP1;ratioP1;P2;durP2;ratioP2
75984;SDS011;65033;44.660;37.758;2024-03-02T00:00:20;6.78;;;3.92;;
75984;SDS011;65033;44.660;37.758;2024-03-02T00:01:24;7.93;;;3.60;;
75984;SDS011;65033;44.660;37.758;2024-03-02T00:02:28;9.00;;;4.32;;
75984;SDS011;65033;44.660;37.758;2024-03-02T00:03:32;7.47;;;3.45;;
75984;SDS011;65033;44.660;37.758;2024-03-02T00:04:39;10.63;;;4.50;;
75984;SDS011;65033;44.660;37.758;2024-03-02T00:05:42;6.55;;;3.58;;
75984;SDS011;65033;44.660;37.758;2024-03-02T00:06:46;4.97;;;3.40;;
75984;SDS011;65033;44.660;37.758;2024-03-02T00:07:52;5.85;;;3.85;;
75984;SDS011;65033;44.660;37.758;2024-03-02T00:08:58;5.63;;;3.33;;
75984;SDS011;65033;44.660;37.758;2024-03-02T00:10:04;7.18;;;3.63;;
75984;SDS011;65033;44.660;37.758;2024-03-02T00:11:16;4.95;;;2.53;;
75984;SDS011;65033;44.660;37.758;2024-03-02T00:12:21;5.75;;;3.45;;
75984;SDS011;65033;44.660;37.758;2024-03-02T00:13:25;5.93;;;3.47;;
75984;SDS011;65033;44.660;37.758;2024-03-02T00:14:29;4.85;;;3.60;;
75984;SDS011;65033;44.660;37.758;2024-03-02T00:15:44;4.00;;;2.90;;
75984;SDS011;65033;44.660;37.758;2024-03-02T00:16:49;5.40;;;3.53;;
75984;SDS011;65033;44.660;37.758;2024-03-02T00:17:54;8.30;;;3.95;;
75984;SDS011;65033;44.660;37.758;2024-03-02T00:19:01;6.03;;;4.18;;
75984;SDS011;65033;44.660;37.758;2024-03-02T00:20:05;9.35;;;3.85;;
75984;SDS011;65033;44.660;37.758;2024-03-02T00:21:12;8.60;;;4.22;;
75984;SDS011;65033;44.660;37.758;2024-03-02T00:22:17;4.88;;;3.33;;
75984;SDS011;65033;44.660;37.758;2024-03-02T00:23:20;5.60;;;3.63;;
75984;SDS011;65033;44.660;37.758;2024-03-02T00:24:26;4.63;;;3.30;;
75984;SDS011;65033;44.660;37.758;2024-03-02T00:25:36;8.00;;;3.85;;
75984;SDS011;65033;44.660;37.758;2024-03-02T00:26:45;6.18;;;3.20;;
75984;SDS011;65033;44.660;37.758;2024-03-02T00:27:49;6.00;;;3.58;;
75984;SDS011;65033;44.660;37.758;2024-03-02T00:28:52;4.38;;;3.10;;
75984;SDS011;65033;44.660;37.758;2024-03-02T00:30:00;4.72;;;3.25;;
75984;SDS011;65033;44.660;37.758;2024-03-02T00:31:05;5.82;;;3.33;;
75984;SDS011;65033;44.660;37.758;2024-03-02T00:32:10;5.18;;;2.83;;
75984;SDS011;65033;44.660;37.758;2024-03-02T00:33:16;4.53;;;3.42;;
75984;SDS011;65033;44.660;37.758;2024-03-02T00:34:20;6.97;;;3.28;;
75984;SDS011;65033;44.660;37.758;2024-03-02T00:35:24;6.15;;;3.42;;
75984;SDS011;65033;44.660;37.758;2024-03-02T00:36:27;6.60;;;3.22;;
75984;SDS011;65033;44.660;37.758;2024-03-02T00:37:31;7.63;;;3.40;;
75984;SDS011;65033;44.660;37.758;2024-03-02T00:38:39;7.75;;;3.05;;
75984;SDS011;65033;44.660;37.758;2024-03-02T00:39:48;4.82;;;3.03;;
75984;SDS011;65033;44.660;37.758;2024-03-02T00:40:52;4.22;;;3.03;;
75984;SDS011;65033;44.660;37.758;2024-03-02T00:41:57;3.92;;;2.90;;
75984;SDS011;65033;44.660;37.758;2024-03-02T00:43:01;5.72;;;3.00;;
75984;SDS011;65033;44.660;37.758;2024-03-02T00:44:06;4.45;;;3.20;;
75984;SDS011;65033;44.660;37.758;2024-03-02T00:45:12;6.85;;;2.90;;
75984;SDS011;65033;44.660;37.758;2024-03-02T00:46:16;4.70;;;3.17;;
75984;SDS011;65033;44.660;37.758;2024-03-02T00:47:21;6.03;;;3.35;;
75984;SDS011;65033;44.660;37.758;2024-03-02T00:48:25;3.78;;;2.58;;
75984;SDS011;65033;44.660;37.758;2024-03-02T00:49:28;3.35;;;2.85;;
75984;SDS011;65033;44.660;37.758;2024-03-02T00:50:32;3.78;;;2.55;;
75984;SDS011;65033;44.660;37.758;2024-03-02T00:51:35;4.35;;;2.60;;
75984;SDS011;65033;44.660;37.758;2024-03-02T00:52:40;4.13;;;2.90;;
75984;SDS011;65033;44.660;37.758;2024-03-02T00:53:44;3.22;;;2.50;;
75984;SDS011;65033;44.660;37.758;2024-03-02T00:54:48;4.07;;;2.78;;
75984;SDS011;65033;44.660;37.758;2024-03-02T00:55:51;4.28;;;2.45;;
75984;SDS011;65033;44.660;37.758;2024-03-02T00:56:55;3.97;;;2.95;;
75984;SDS011;65033;44.660;37.758;2024-03-02T00:58:00;4.03;;;2.65;;
75984;SDS011;65033;44.660;37.758;2024-03-02T00:59:03;4.90;;;2.92;;
75984;SDS011;65033;44.660;37.758;2024-03-02T01:00:07;4.13;;;2.85;;
75984;SDS011;65033;44.660;37.758;2024-03-02T01:01:16;3.22;;;2.25;;
75984;SDS011;65033;44.660;37.758;2024-03-02T01:02:19;4.80;;;2.30;;
75984;SDS011;65033;44.660;37.758;2024-03-02T01:03:23;2.75;;;2.03;;
75984;SDS011;65033;44.660;37.758;2024-03-02T01:04:27;4.63;;;2.83;;
75984;SDS011;65033;44.660;37.758;2024-03-02T01:05:30;5.15;;;3.08;;
75984;SDS011;65033;44.660;37.758;2024-03-02T01:06:34;5.18;;;2.85;;
75984;SDS011;65033;44.660;37.758;2024-03-02T01:07:38;4.78;;;3.22;;
75984;SDS011;65033;44.660;37.758;2024-03-02T01:08:41;4.50;;;3.30;;
75984;SDS011;65033;44.660;37.758;2024-03-02T01:09:48;4.68;;;2.55;;
75984;SDS011;65033;44.660;37.758;2024-03-02T01:10:53;5.20;;;2.65;;
75984;SDS011;65033;44.660;37.758;2024-03-02T01:11:58;4.22;;;2.85;;
75984;SDS011;65033;44.660;37.758;2024-03-02T01:13:02;6.50;;;3.38;;
75984;SDS011;65033;44.660;37.758;2024-03-02T01:14:06;5.03;;;2.97;;
75984;SDS011;65033;44.660;37.758;2024-03-02T01:15:09;4.38;;;2.70;;
75984;SDS011;65033;44.660;37.758;2024-03-02T01:16:13;5.22;;;3.08;;
75984;SDS011;65033;44.660;37.758;2024-03-02T01:17:18;3.25;;;2.72;;
75984;SDS011;65033;44.660;37.758;2024-03-02T01:18:21;3.13;;;2.70;;
75984;SDS011;65033;44.660;37.758;2024-03-02T01:19:25;3.42;;;2.58;;
75984;SDS011;65033;44.660;37.758;2024-03-02T01:20:29;7.05;;;2.40;;
75984;SDS011;65033;44.660;37.758;2024-03-02T01:21:32;3.15;;;2.20;;
75984;SDS011;65033;44.660;37.758;2024-03-02T01:22:36;4.53;;;2.38;;
75984;SDS011;65033;44.660;37.758;2024-03-02T01:23:40;2.60;;;2.08;;
75984;SDS011;65033;44.660;37.758;2024-03-02T01:24:43;3.15;;;2.13;;
75984;SDS011;65033;44.660;37.758;2024-03-02T01:25:46;4.72;;;2.13;;
75984;SDS011;65033;44.660;37.758;2024-03-02T01:26:50;6.97;;;2.42;;
75984;SDS011;65033;44.660;37.758;2024-03-02T01:27:55;2.80;;;1.83;;
75984;SDS011;65033;44.660;37.758;2024-03-02T01:28:58;3.75;;;2.03;;
75984;SDS011;65033;44.660;37.758;2024-03-02T01:30:02;2.47;;;1.92;;
75984;SDS011;65033;44.660;37.758;2024-03-02T01:31:06;4.28;;;2.13;;
75984;SDS011;65033;44.660;37.758;2024-03-02T01:32:10;2.40;;;1.73;;
75984;SDS011;65033;44.660;37.758;2024-03-02T01:33:15;2.80;;;2.30;;
75984;SDS011;65033;44.660;37.758;2024-03-02T01:34:19;3.60;;;2.13;;
75984;SDS011;65033;44.660;37.758;2024-03-02T01:35:23;3.72;;;2.53;;
75984;SDS011;65033;44.660;37.758;2024-03-02T01:36:29;2.83;;;1.80;;
75984;SDS011;65033;44.660;37.758;2024-03-02T01:37:32;4.25;;;2.25;;
75984;SDS011;65033;44.660;37.758;2024-03-02T01:38:36;4.47;;;1.58;;
75984;SDS011;65033;44.660;37.758;2024-03-02T01:39:39;5.45;;;2.95;;
75984;SDS011;65033;44.660;37.758;2024-03-02T01:40:43;4.70;;;2.13;;
75984;SDS011;65033;44.660;37.758;2024-03-02T01:41:49;3.00;;;2.22;;
75984;SDS011;65033;44.660;37.758;2024-03-02T01:42:54;6.60;;;2.78;;
75984;SDS011;65033;44.660;37.758;2024-03-02T01:44:00;4.57;;;2.40;;
75984;SDS011;65033;44.660;37.758;2024-03-02T01:45:04;3.25;;;2.17;;
75984;SDS011;65033;44.660;37.758;2024-03-02T01:46:11;3.90;;;2.50;;
75984;SDS011;65033;44.660;37.758;2024-03-02T01:47:14;7.45;;;2.92;;
75984;SDS011;65033;44.660;37.758;2024-03-02T01:48:18;2.55;;;1.70;;
75984;SDS011;65033;44.660;37.758;2024-03-02T01:49:24;3.80;;;2.15;;
75984;SDS011;65033;44.660;37.758;2024-03-02T01:50:27;3.30;;;2.15;;
75984;SDS011;65033;44.660;37.758;2024-03-02T01:51:33;3.97;;;2.08;;
75984;SDS011;65033;44.660;37.758;2024-03-02T01:52:36;2.70;;;2.10;;
75984;SDS011;65033;44.660;37.758;2024-03-02T01:53:40;6.85;;;2.28;;
75984;SDS011;65033;44.660;37.758;2024-03-02T01:54:43;2.55;;;1.55;;
75984;SDS011;65033;44.660;37.758;2024-03-02T01:55:47;4.93;;;2.28;;
75984;SDS011;65033;44.660;37.758;2024-03-02T01:56:50;3.10;;;2.20;;
75984;SDS011;65033;44.660;37.758;2024-03-02T01:57:55;3.85;;;2.35;;
75984;SDS011;65033;44.660;37.758;2024-03-02T01:59:02;4.25;;;2.05;;
75984;SDS011;65033;44.660;37.758;2024-03-02T02:00:06;2.97;;;2.38;;
75984;SDS011;65033;44.660;37.758;2024-03-02T02:01:19;3.50;;;1.95;;
75984;SDS011;65033;44.660;37.758;2024-03-02T02:02:22;4.53;;;2.45;;
75984;SDS011;65033;44.660;37.758;2024-03-02T02:03:26;3.85;;;2.33;;
75984;SDS011;65033;44.660;37.758;2024-03-02T02:04:32;3.08;;;2.30;;
75984;SDS011;65033;44.660;37.758;2024-03-02T02:05:36;3.92;;;2.15;;
75984;SDS011;65033;44.660;37.758;2024-03-02T02:06:42;3.45;;;2.30;;
75984;SDS011;65033;44.660;37.758;2024-03-02T02:07:47;5.90;;;2.70;;
75984;SDS011;65033;44.660;37.758;2024-03-02T02:08:51;4.85;;;2.30;;
75984;SDS011;65033;44.660;37.758;2024-03-02T02:09:54;3.22;;;2.25;;
75984;SDS011;65033;44.660;37.758;2024-03-02T02:10:59;4.20;;;2.33;;
75984;SDS011;65033;44.660;37.758;2024-03-02T02:12:03;2.38;;;1.70;;
75984;SDS011;65033;44.660;37.758;2024-03-02T02:13:13;2.28;;;1.90;;
75984;SDS011;65033;44.660;37.758;2024-03-02T02:14:17;3.50;;;2.15;;
75984;SDS011;65033;44.660;37.758;2024-03-02T02:15:24;4.97;;;2.10;;
75984;SDS011;65033;44.660;37.758;2024-03-02T02:16:28;4.45;;;2.20;;
75984;SDS011;65033;44.660;37.758;2024-03-02T02:17:32;3.60;;;1.77;;
75984;SDS011;65033;44.660;37.758;2024-03-02T02:18:35;2.83;;;2.03;;
75984;SDS011;65033;44.660;37.758;2024-03-02T02:19:42;3.72;;;2.10;;
75984;SDS011;65033;44.660;37.758;2024-03-02T02:20:45;3.15;;;1.67;;
75984;SDS011;65033;44.660;37.758;2024-03-02T02:21:50;3.60;;;2.08;;
75984;SDS011;65033;44.660;37.758;2024-03-02T02:22:55;4.90;;;2.40;;
75984;SDS011;65033;44.660;37.758;2024-03-02T02:23:58;4.95;;;2.25;;
75984;SDS011;65033;44.660;37.758;2024-03-02T02:25:02;3.30;;;2.38;;
75984;SDS011;65033;44.660;37.758;2024-03-02T02:26:06;4.65;;;1.98;;
75984;SDS011;65033;44.660;37.758;2024-03-02T02:27:10;3.72;;;2.20;;
75984;SDS011;65033;44.660;37.758;2024-03-02T02:28:15;2.88;;;2.03;;
75984;SDS011;65033;44.660;37.758;2024-03-02T02:29:19;4.10;;;2.42;;
75984;SDS011;65033;44.660;37.758;2024-03-02T02:30:23;4.03;;;2.65;;
75984;SDS011;65033;44.660;37.758;2024-03-02T02:31:36;3.17;;;2.33;;
75984;SDS011;65033;44.660;37.758;2024-03-02T02:32:40;4.03;;;2.33;;
75984;SDS011;65033;44.660;37.758;2024-03-02T02:33:44;5.90;;;2.20;;
75984;SDS011;65033;44.660;37.758;2024-03-02T02:34:47;2.72;;;1.95;;
75984;SDS011;65033;44.660;37.758;2024-03-02T02:35:55;2.80;;;2.00;;
75984;SDS011;65033;44.660;37.758;2024-03-02T02:37:00;2.67;;;1.92;;
75984;SDS011;65033;44.660;37.758;2024-03-02T02:38:07;5.28;;;2.53;;
75984;SDS011;65033;44.660;37.758;2024-03-02T02:39:12;3.17;;;2.13;;
75984;SDS011;65033;44.660;37.758;2024-03-02T02:40:19;3.50;;;2.15;;
75984;SDS011;65033;44.660;37.758;2024-03-02T02:41:22;4.70;;;2.40;;
75984;SDS011;65033;44.660;37.758;2024-03-02T02:42:26;3.58;;;2.00;;
75984;SDS011;65033;44.660;37.758;2024-03-02T02:43:29;5.15;;;2.08;;
75984;SDS011;65033;44.660;37.758;2024-03-02T02:44:32;4.03;;;2.17;;
75984;SDS011;65033;44.660;37.758;2024-03-02T02:45:36;4.18;;;2.38;;
75984;SDS011;65033;44.660;37.758;2024-03-02T02:46:40;4.03;;;2.45;;
75984;SDS011;65033;44.660;37.758;2024-03-02T02:47:44;4.15;;;2.35;;
75984;SDS011;65033;44.660;37.758;2024-03-02T02:48:48;5.80;;;3.22;;
75984;SDS011;65033;44.660;37.758;2024-03-02T02:49:54;4.05;;;2.67;;
75984;SDS011;65033;44.660;37.758;2024-03-02T02:50:58;4.13;;;2.38;;
75984;SDS011;65033;44.660;37.758;2024-03-02T02:52:03;4.13;;;1.92;;
75984;SDS011;65033;44.660;37.758;2024-03-02T02:53:07;4.93;;;2.10;;
75984;SDS011;65033;44.660;37.758;2024-03-02T02:54:12;2.95;;;2.20;;
75984;SDS011;65033;44.660;37.758;2024-03-02T02:55:15;3.40;;;1.88;;
75984;SDS011;65033;44.660;37.758;2024-03-02T02:56:19;3.67;;;2.10;;
75984;SDS011;65033;44.660;37.758;2024-03-02T02:57:22;8.63;;;3.33;;
75984;SDS011;65033;44.660;37.758;2024-03-02T02:58:26;4.53;;;2.75;;
75984;SDS011;65033;44.660;37.758;2024-03-02T02:59:29;5.28;;;2.03;;
75984;SDS011;65033;44.660;37.758;2024-03-02T03:00:33;3.15;;;2.08;;
75984;SDS011;65033;44.660;37.758;2024-03-02T03:01:36;3.05;;;2.00;;
75984;SDS011;65033;44.660;37.758;2024-03-02T03:02:41;4.30;;;2.40;;
75984;SDS011;65033;44.660;37.758;2024-03-02T03:03:45;7.85;;;2.08;;
75984;SDS011;65033;44.660;37.758;2024-03-02T03:04:49;4.70;;;2.40;;
75984;SDS011;65033;44.660;37.758;2024-03-02T03:05:52;3.47;;;1.75;;
75984;SDS011;65033;44.660;37.758;2024-03-02T03:06:55;4.13;;;2.50;;
75984;SDS011;65033;44.660;37.758;2024-03-02T03:08:00;8.02;;;3.00;;
75984;SDS011;65033;44.660;37.758;2024-03-02T03:09:04;5.13;;;2.13;;
75984;SDS011;65033;44.660;37.758;2024-03-02T03:10:07;4.22;;;2.42;;
75984;SDS011;65033;44.660;37.758;2024-03-02T03:11:11;5.85;;;2.30;;
75984;SDS011;65033;44.660;37.758;2024-03-02T03:12:14;3.72;;;2.25;;
75984;SDS011;65033;44.660;37.758;2024-03-02T03:13:18;4.90;;;2.45;;
75984;SDS011;65033;44.660;37.758;2024-03-02T03:14:22;7.07;;;3.40;;
75984;SDS011;65033;44.660;37.758;2024-03-02T03:15:25;5.88;;;2.67;;
75984;SDS011;65033;44.660;37.758;2024-03-02T03:16:29;4.20;;;2.92;;
75984;SDS011;65033;44.660;37.758;2024-03-02T03:17:32;4.38;;;2.25;;
75984;SDS011;65033;44.660;37.758;2024-03-02T03:18:36;4.15;;;2.40;;
75984;SDS011;65033;44.660;37.758;2024-03-02T03:19:41;6.78;;;2.58;;
75984;SDS011;65033;44.660;37.758;2024-03-02T03:20:44;5.07;;;3.13;;
75984;SDS011;65033;44.660;37.758;2024-03-02T03:21:48;6.07;;;2.45;;
75984;SDS011;65033;44.660;37.758;2024-03-02T03:22:51;3.38;;;2.58;;
75984;SDS011;65033;44.660;37.758;2024-03-02T03:23:56;5.47;;;3.17;;
75984;SDS011;65033;44.660;37.758;2024-03-02T03:25:00;4.63;;;2.78;;
75984;SDS011;65033;44.660;37.758;2024-03-02T03:26:04;5.22;;;2.65;;
75984;SDS011;65033;44.660;37.758;2024-03-02T03:27:07;4.40;;;2.70;;
75984;SDS011;65033;44.660;37.758;2024-03-02T03:28:12;5.60;;;2.97;;
75984;SDS011;65033;44.660;37.758;2024-03-02T03:29:16;6.93;;;3.72;;
75984;SDS011;65033;44.660;37.758;2024-03-02T03:30:19;6.50;;;4.07;;
75984;SDS011;65033;44.660;37.758;2024-03-02T03:31:23;6.30;;;3.00;;
75984;SDS011;65033;44.660;37.758;2024-03-02T03:32:26;5.38;;;3.05;;
75984;SDS011;65033;44.660;37.758;2024-03-02T03:33:30;6.72;;;3.53;;
75984;SDS011;65033;44.660;37.758;2024-03-02T03:34:33;6.72;;;3.17;;
75984;SDS011;65033;44.660;37.758;2024-03-02T03:35:37;5.20;;;3.25;;
75984;SDS011;65033;44.660;37.758;2024-03-02T03:36:41;6.28;;;3.35;;
75984;SDS011;65033;44.660;37.758;2024-03-02T03:37:44;4.85;;;3.22;;
75984;SDS011;65033;44.660;37.758;2024-03-02T03:38:47;4.55;;;3.33;;
75984;SDS011;65033;44.660;37.758;2024-03-02T03:39:52;4.05;;;3.03;;
75984;SDS011;65033;44.660;37.758;2024-03-02T03:40:56;5.90;;;3.00;;
75984;SDS011;65033;44.660;37.758;2024-03-02T03:41:59;8.60;;;2.88;;
75984;SDS011;65033;44.660;37.758;2024-03-02T03:43:03;4.03;;;3.00;;
75984;SDS011;65033;44.660;37.758;2024-03-02T03:44:06;4.72;;;2.92;;
75984;SDS011;65033;44.660;37.758;2024-03-02T03:45:13;7.30;;;3.10;;
75984;SDS011;65033;44.660;37.758;2024-03-02T03:46:16;6.90;;;3.58;;
75984;SDS011;65033;44.660;37.758;2024-03-02T03:47:20;5.13;;;3.40;;
75984;SDS011;65033;44.660;37.758;2024-03-02T03:48:24;5.82;;;3.45;;
75984;SDS011;65033;44.660;37.758;2024-03-02T03:49:33;5.07;;;3.75;;
75984;SDS011;65033;44.660;37.758;2024-03-02T03:50:37;8.77;;;3.45;;
75984;SDS011;65033;44.660;37.758;2024-03-02T03:51:43;6.53;;;3.33;;
75984;SDS011;65033;44.660;37.758;2024-03-02T03:52:47;8.00;;;4.03;;
75984;SDS011;65033;44.660;37.758;2024-03-02T03:53:50;5.88;;;3.40;;
75984;SDS011;65033;44.660;37.758;2024-03-02T03:54:55;10.48;;;3.88;;
75984;SDS011;65033;44.660;37.758;2024-03-02T03:55:59;11.07;;;5.78;;
75984;SDS011;65033;44.660;37.758;2024-03-02T03:57:02;7.35;;;3.45;;
75984;SDS011;65033;44.660;37.758;2024-03-02T03:58:06;6.38;;;3.60;;
75984;SDS011;65033;44.660;37.758;2024-03-02T03:59:11;6.65;;;3.38;;
75984;SDS011;65033;44.660;37.758;2024-03-02T04:00:16;6.63;;;4.50;;
75984;SDS011;65033;44.660;37.758;2024-03-02T04:01:21;5.70;;;3.63;;
75984;SDS011;65033;44.660;37.758;2024-03-02T04:02:25;6.30;;;4.50;;
75984;SDS011;65033;44.660;37.758;2024-03-02T04:03:28;5.82;;;3.55;;
75984;SDS011;65033;44.660;37.758;2024-03-02T04:04:32;4.07;;;3.25;;
75984;SDS011;65033;44.660;37.758;2024-03-02T04:05:41;7.82;;;3.97;;
75984;SDS011;65033;44.660;37.758;2024-03-02T04:06:44;6.32;;;3.78;;
75984;SDS011;65033;44.660;37.758;2024-03-02T04:07:48;8.48;;;4.38;;
75984;SDS011;65033;44.660;37.758;2024-03-02T04:08:51;11.80;;;4.18;;
75984;SDS011;65033;44.660;37.758;2024-03-02T04:09:56;5.95;;;3.13;;
75984;SDS011;65033;44.660;37.758;2024-03-02T04:10:59;5.53;;;3.58;;
75984;SDS011;65033;44.660;37.758;2024-03-02T04:12:03;5.20;;;3.53;;
75984;SDS011;65033;44.660;37.758;2024-03-02T04:13:07;7.25;;;3.83;;
75984;SDS011;65033;44.660;37.758;2024-03-02T04:14:10;7.32;;;3.38;;
75984;SDS011;65033;44.660;37.758;2024-03-02T04:15:15;6.65;;;3.80;;
75984;SDS011;65033;44.660;37.758;2024-03-02T04:16:18;7.95;;;3.63;;
75984;SDS011;65033;44.660;37.758;2024-03-02T04:17:22;6.10;;;3.70;;
75984;SDS011;65033;44.660;37.758;2024-03-02T04:18:25;8.05;;;4.40;;
75984;SDS011;65033;44.660;37.758;2024-03-02T04:19:29;9.63;;;4.65;;
75984;SDS011;65033;44.660;37.758;2024-03-02T04:20:33;6.15;;;3.60;;
75984;SDS011;65033;44.660;37.758;2024-03-02T04:21:36;8.40;;;3.95;;
75984;SDS011;65033;44.660;37.758;2024-03-02T04:22:39;6.57;;;4.03;;
75984;SDS011;65033;44.660;37.758;2024-03-02T04:23:45;6.45;;;4.28;;
75984;SDS011;65033;44.660;37.758;2024-03-02T04:24:49;18.23;;;9.80;;
75984;SDS011;65033;44.660;37.758;2024-03-02T04:25:54;10.70;;;6.07;;
75984;SDS011;65033;44.660;37.758;2024-03-02T04:27:01;6.63;;;4.50;;
75984;SDS011;65033;44.660;37.758;2024-03-02T04:28:05;7.20;;;4.25;;
75984;SDS011;65033;44.660;37.758;2024-03-02T04:29:08;8.10;;;4.75;;
75984;SDS011;65033;44.660;37.758;2024-03-02T04:30:12;8.50;;;4.70;;
75984;SDS011;65033;44.660;37.758;2024-03-02T04:31:15;10.80;;;4.70;;
75984;SDS011;65033;44.660;37.758;2024-03-02T04:32:19;8.65;;;4.25;;
75984;SDS011;65033;44.660;37.758;2024-03-02T04:33:23;8.20;;;3.70;;
75984;SDS011;65033;44.660;37.758;2024-03-02T04:34:26;8.13;;;4.20;;
75984;SDS011;65033;44.660;37.758;2024-03-02T04:35:29;10.52;;;5.60;;
75984;SDS011;65033;44.660;37.758;2024-03-02T04:36:33;7.35;;;4.40;;
75984;SDS011;65033;44.660;37.758;2024-03-02T04:37:36;10.35;;;4.97;;
75984;SDS011;65033;44.660;37.758;2024-03-02T04:38:43;12.55;;;4.68;;
75984;SDS011;65033;44.660;37.758;2024-03-02T04:39:47;7.55;;;4.50;;
75984;SDS011;65033;44.660;37.758;2024-03-02T04:40:50;7.85;;;4.75;;
75984;SDS011;65033;44.660;37.758;2024-03-02T04:41:55;11.02;;;5.18;;
75984;SDS011;65033;44.660;37.758;2024-03-02T04:42:59;12.90;;;6.25;;
75984;SDS011;65033;44.660;37.758;2024-03-02T04:44:02;10.93;;;4.90;;
75984;SDS011;65033;44.660;37.758;2024-03-02T04:45:06;10.40;;;4.53;;
75984;SDS011;65033;44.660;37.758;2024-03-02T04:46:13;6.65;;;3.60;;
75984;SDS011;65033;44.660;37.758;2024-03-02T04:47:16;6.30;;;4.03;;
75984;SDS011;65033;44.660;37.758;2024-03-02T04:48:20;8.10;;;4.72;;
75984;SDS011;65033;44.660;37.758;2024-03-02T04:49:25;11.50;;;5.80;;
75984;SDS011;65033;44.660;37.758;2024-03-02T04:50:28;11.38;;;5.13;;
75984;SDS011;65033;44.660;37.758;2024-03-02T04:51:32;10.23;;;4.93;;
75984;SDS011;65033;44.660;37.758;2024-03-02T04:52:36;11.40;;;4.47;;
75984;SDS011;65033;44.660;37.758;2024-03-02T04:53:42;8.95;;;4.65;;
75984;SDS011;65033;44.660;37.758;2024-03-02T04:54:49;7.63;;;4.22;;
75984;SDS011;65033;44.660;37.758;2024-03-02T04:56:13;11.05;;;5.07;;
75984;SDS011;65033;44.660;37.758;2024-03-02T04:57:30;5.65;;;4.05;;
75984;SDS011;65033;44.660;37.758;2024-03-02T04:58:33;9.05;;;4.63;;
75984;SDS011;65033;44.660;37.758;2024-03-02T04:59:39;10.35;;;4.65;;
75984;SDS011;65033;44.660;37.758;2024-03-02T05:00:43;10.50;;;4.88;;
75984;SDS011;65033;44.660;37.758;2024-03-02T05:01:50;10.85;;;5.00;;
75984;SDS011;65033;44.660;37.758;2024-03-02T05:02:54;11.75;;;4.55;;
75984;SDS011;65033;44.660;37.758;2024-03-02T05:03:57;12.90;;;5.00;;
75984;SDS011;65033;44.660;37.758;2024-03-02T05:05:01;9.43;;;4.75;;
75984;SDS011;65033;44.660;37.758;2024-03-02T05:06:05;12.13;;;5.75;;
75984;SDS011;65033;44.660;37.758;2024-03-02T05:07:09;10.57;;;5.13;;
75984;SDS011;65033;44.660;37.758;2024-03-02T05:08:12;14.65;;;5.05;;
75984;SDS011;65033;44.660;37.758;2024-03-02T05:09:16;8.52;;;5.03;;
75984;SDS011;65033;44.660;37.758;2024-03-02T05:10:19;8.38;;;5.03;;
75984;SDS011;65033;44.660;37.758;2024-03-02T05:11:23;13.18;;;5.68;;
75984;SDS011;65033;44.660;37.758;2024-03-02T05:12:43;7.65;;;4.28;;
75984;SDS011;65033;44.660;37.758;2024-03-02T05:13:46;15.60;;;6.25;;
75984;SDS011;65033;44.660;37.758;2024-03-02T05:14:50;9.73;;;5.05;;
75984;SDS011;65033;44.660;37.758;2024-03-02T05:15:53;9.65;;;4.40;;
75984;SDS011;65033;44.660;37.758;2024-03-02T05:16:57;15.57;;;5.88;;
75984;SDS011;65033;44.660;37.758;2024-03-02T05:18:00;16.27;;;4.97;;
75984;SDS011;65033;44.660;37.758;2024-03-02T05:19:08;10.63;;;4.88;;
75984;SDS011;65033;44.660;37.758;2024-03-02T05:20:11;13.25;;;4.93;;
75984;SDS011;65033;44.660;37.758;2024-03-02T05:21:15;15.02;;;5.25;;
75984;SDS011;65033;44.660;37.758;2024-03-02T05:22:19;6.97;;;4.53;;
75984;SDS011;65033;44.660;37.758;2024-03-02T05:23:22;8.07;;;5.20;;
75984;SDS011;65033;44.660;37.758;2024-03-02T05:24:27;11.02;;;5.95;;
75984;SDS011;65033;44.660;37.758;2024-03-02T05:25:32;11.90;;;5.10;;
75984;SDS011;65033;44.660;37.758;2024-03-02T05:26:37;12.00;;;4.88;;
75984;SDS011;65033;44.660;37.758;2024-03-02T05:27:41;17.90;;;4.68;;
75984;SDS011;65033;44.660;37.758;2024-03-02T05:28:46;7.95;;;5.05;;
75984;SDS011;65033;44.660;37.758;2024-03-02T05:29:50;9.77;;;5.57;;
75984;SDS011;65033;44.660;37.758;2024-03-02T05:30:53;10.77;;;5.18;;
75984;SDS011;65033;44.660;37.758;2024-03-02T05:31:57;11.98;;;5.30;;
75984;SDS011;65033;44.660;37.758;2024-03-02T05:33:00;10.65;;;4.85;;
75984;SDS011;65033;44.660;37.758;2024-03-02T05:34:04;10.75;;;5.72;;
75984;SDS011;65033;44.660;37.758;2024-03-02T05:35:12;10.15;;;5.05;;
75984;SDS011;65033;44.660;37.758;2024-03-02T05:36:15;16.67;;;6.63;;
75984;SDS011;65033;44.660;37.758;2024-03-02T05:37:21;14.13;;;5.82;;
75984;SDS011;65033;44.660;37.758;2024-03-02T05:38:24;15.80;;;6.03;;
75984;SDS011;65033;44.660;37.758;2024-03-02T05:39:28;15.40;;;6.60;;
75984;SDS011;65033;44.660;37.758;2024-03-02T05:40:31;20.52;;;6.38;;
75984;SDS011;65033;44.660;37.758;2024-03-02T05:41:37;17.10;;;7.13;;
75984;SDS011;65033;44.660;37.758;2024-03-02T05:42:41;13.82;;;6.35;;
75984;SDS011;65033;44.660;37.758;2024-03-02T05:43:47;15.13;;;6.30;;
75984;SDS011;65033;44.660;37.758;2024-03-02T05:44:50;12.38;;;6.35;;
75984;SDS011;65033;44.660;37.758;2024-03-02T05:45:54;13.48;;;6.50;;
75984;SDS011;65033;44.660;37.758;2024-03-02T05:46:57;13.20;;;6.10;;
75984;SDS011;65033;44.660;37.758;2024-03-02T05:48:01;14.48;;;5.63;;
75984;SDS011;65033;44.660;37.758;2024-03-02T05:49:07;12.73;;;6.18;;
75984;SDS011;65033;44.660;37.758;2024-03-02T05:50:12;12.90;;;6.10;;
75984;SDS011;65033;44.660;37.758;2024-03-02T05:51:16;11.63;;;5.63;;
75984;SDS011;65033;44.660;37.758;2024-03-02T05:52:19;10.13;;;6.13;;
75984;SDS011;65033;44.660;37.758;2024-03-02T05:53:23;17.08;;;6.32;;
75984;SDS011;65033;44.660;37.758;2024-03-02T05:54:26;16.02;;;6.20;;
75984;SDS011;65033;44.660;37.758;2024-03-02T05:55:30;8.60;;;5.13;;
75984;SDS011;65033;44.660;37.758;2024-03-02T05:56:33;14.70;;;5.63;;
75984;SDS011;65033;44.660;37.758;2024-03-02T05:57:40;13.77;;;5.30;;
75984;SDS011;65033;44.660;37.758;2024-03-02T05:58:48;20.13;;;6.30;;
75984;SDS011;65033;44.660;37.758;2024-03-02T05:59:54;18.20;;;5.72;;
75984;SDS011;65033;44.660;37.758;2024-03-02T06:00:58;13.93;;;6.05;;
75984;SDS011;65033;44.660;37.758;2024-03-02T06:02:02;11.35;;;5.38;;
75984;SDS011;65033;44.660;37.758;2024-03-02T06:03:06;12.85;;;6.47;;
75984;SDS011;65033;44.660;37.758;2024-03-02T06:04:12;18.95;;;6.22;;
75984;SDS011;65033;44.660;37.758;2024-03-02T06:05:15;20.77;;;6.63;;
75984;SDS011;65033;44.660;37.758;2024-03-02T06:06:26;11.55;;;5.53;;
75984;SDS011;65033;44.660;37.758;2024-03-02T06:07:30;8.73;;;5.82;;
75984;SDS011;65033;44.660;37.758;2024-03-02T06:08:33;15.02;;;6.63;;
75984;SDS011;65033;44.660;37.758;2024-03-02T06:09:38;15.18;;;5.28;;
75984;SDS011;65033;44.660;37.758;2024-03-02T06:10:41;10.50;;;7.15;;
75984;SDS011;65033;44.660;37.758;2024-03-02T06:11:45;12.30;;;5.47;;
75984;SDS011;65033;44.660;37.758;2024-03-02T06:12:49;12.95;;;6.03;;
75984;SDS011;65033;44.660;37.758;2024-03-02T06:13:54;8.18;;;5.03;;
75984;SDS011;65033;44.660;37.758;2024-03-02T06:14:58;10.40;;;5.35;;
75984;SDS011;65033;44.660;37.758;2024-03-02T06:16:01;8.35;;;5.57;;
75984;SDS011;65033;44.660;37.758;2024-03-02T06:17:05;13.98;;;6.15;;
75984;SDS011;65033;44.660;37.758;2024-03-02T06:18:08;12.63;;;6.38;;
75984;SDS011;65033;44.660;37.758;2024-03-02T06:19:12;10.38;;;5.35;;
75984;SDS011;65033;44.660;37.758;2024-03-02T06:20:15;10.15;;;6.78;;
75984;SDS011;65033;44.660;37.758;2024-03-02T06:21:18;12.85;;;7.30;;